Time;durP1;ratioP1;P1;durP2;ratioP2;P2;SDS_P1;SDS_P2;PMS_P1;PMS_P2;Temp;Humidity;BMP_temperature;BMP_pressure;BME280_temperature;BME280_humidity;BME280_pressure;Samples;Min_cycle;Max_cycle;Signal;HPM_P1;HPM_P2
2022/02/16 00:01:09;;;;;;;7.25;1.65;;;;;;;10.97;100.00;98661.84;4973715;28;20034;-88
2022/02/16 00:03:34;;;;;;;20.15;2.80;;;;;;;11.05;100.00;98680.34;5007098;28;20097;-88
2022/02/16 00:06:00;;;;;;;1.30;1.20;;;;;;;11.06;100.00;98697.31;4970795;28;20476;-89
2022/02/16 00:08:26;;;;;;;9.60;2.05;;;;;;;11.05;100.00;98701.88;4980239;28;20038;-86
2022/02/16 00:10:52;;;;;;;1.17;0.95;;;;;;;11.01;100.00;98684.56;4988785;28;20061;-84
2022/02/16 00:13:19;;;;;;;8.90;1.25;;;;;;;11.00;100.00;98701.72;4976522;28;20026;-85
2022/02/16 00:15:44;;;;;;;8.48;1.48;;;;;;;11.04;100.00;98694.03;4974192;28;20042;-89
2022/02/16 00:18:10;;;;;;;15.07;2.50;;;;;;;11.04;100.00;98675.22;4980195;28;20029;-85
2022/02/16 00:20:36;;;;;;;2.20;0.90;;;;;;;11.00;100.00;98691.78;4982308;28;20128;-88
2022/02/16 00:23:02;;;;;;;10.35;2.00;;;;;;;11.02;100.00;98694.25;4958778;28;20400;-87
2022/02/16 00:25:28;;;;;;;5.93;1.40;;;;;;;11.02;100.00;98712.28;4987603;28;20034;-83
2022/02/16 00:27:54;;;;;;;2.05;0.73;;;;;;;11.02;100.00;98717.66;4950371;28;20072;-89
2022/02/16 00:30:22;;;;;;;4.07;1.20;;;;;;;10.90;100.00;98718.44;4958074;28;20045;-87
2022/02/16 00:32:48;;;;;;;6.57;1.85;;;;;;;10.98;100.00;98715.44;4975912;28;20048;-88
2022/02/16 00:35:13;;;;;;;1.38;1.27;;;;;;;10.95;100.00;98721.22;4988413;28;20034;-88
2022/02/16 00:37:39;;;;;;;17.52;2.67;;;;;;;10.94;100.00;98751.06;4976737;28;20126;-84
2022/02/16 00:40:05;;;;;;;24.65;3.72;;;;;;;10.86;100.00;98730.69;4960199;28;20399;-87
2022/02/16 00:42:30;;;;;;;13.13;2.28;;;;;;;10.95;100.00;98766.13;5011464;28;20038;-84
2022/02/16 00:44:58;;;;;;;5.32;1.20;;;;;;;10.90;100.00;98734.56;4972269;28;20092;-86
2022/02/16 00:47:24;;;;;;;0.77;0.70;;;;;;;10.77;100.00;98748.19;4990542;28;20447;-87
2022/02/16 00:49:50;;;;;;;1.35;0.70;;;;;;;10.84;100.00;98750.78;4986961;28;20029;-85
2022/02/16 00:52:17;;;;;;;8.18;1.77;;;;;;;10.85;100.00;98768.53;4990469;28;20057;-84
2022/02/16 00:54:43;;;;;;;3.42;0.90;;;;;;;10.78;100.00;98756.00;4965047;28;20041;-87
2022/02/16 00:57:09;;;;;;;1.40;1.25;;;;;;;10.76;100.00;98755.41;4957727;28;20107;-86
2022/02/16 00:59:34;;;;;;;10.80;1.25;;;;;;;10.76;100.00;98759.97;4990450;28;20124;-90
2022/02/16 01:02:00;;;;;;;39.00;4.03;;;;;;;10.77;100.00;98756.25;4956000;28;20057;-87
2022/02/16 01:04:26;;;;;;;12.70;2.72;;;;;;;10.76;100.00;98759.97;4991973;28;20113;-84
2022/02/16 01:06:52;;;;;;;7.07;1.75;;;;;;;10.81;100.00;98775.44;4988666;28;20025;-87
2022/02/16 01:09:18;;;;;;;8.38;1.95;;;;;;;10.77;100.00;98770.50;4974768;28;20083;-84
2022/02/16 01:11:43;;;;;;;10.23;2.78;;;;;;;10.77;100.00;98777.75;4971460;28;20049;-87
2022/02/16 01:14:09;;;;;;;9.02;2.28;;;;;;;10.78;100.00;98785.56;4991982;28;20342;-88
2022/02/16 01:16:35;;;;;;;7.13;1.77;;;;;;;10.80;100.00;98785.38;4971022;28;20156;-88
2022/02/16 01:19:04;;;;;;;24.92;4.47;;;;;;;10.76;100.00;98754.59;4975899;28;20124;-89
2022/02/16 01:21:31;;;;;;;2.28;0.82;;;;;;;10.79;100.00;98762.19;4983206;28;20044;-88
2022/02/16 01:23:56;;;;;;;6.35;3.78;;;;;;;10.85;100.00;98776.59;4972024;28;20041;-88
2022/02/16 01:26:25;;;;;;;5.47;1.88;;;;;;;10.93;100.00;98781.69;4956780;28;20093;-87
2022/02/16 01:28:50;;;;;;;14.13;2.67;;;;;;;10.93;100.00;98784.38;4989533;28;20034;-88
2022/02/16 01:31:16;;;;;;;1.40;1.15;;;;;;;10.92;100.00;98794.28;4984995;28;20475;-86
2022/02/16 01:33:41;;;;;;;3.95;1.20;;;;;;;10.97;100.00;98789.06;4984768;28;20037;-88
2022/02/16 01:36:07;;;;;;;26.10;3.35;;;;;;;10.98;100.00;98781.81;4971405;28;20045;-84
2022/02/16 01:38:35;;;;;;;7.32;2.85;;;;;;;11.04;100.00;98801.63;4988892;28;20046;-87
2022/02/16 01:41:01;;;;;;;12.13;2.50;;;;;;;11.02;100.00;98793.75;4988533;28;20044;-89
2022/02/16 01:43:26;;;;;;;19.25;3.92;;;;;;;11.00;100.00;98791.28;4991736;28;20037;-88
2022/02/16 01:45:52;;;;;;;1.27;0.73;;;;;;;11.06;100.00;98797.66;4990833;28;20034;-87
2022/02/16 01:48:18;;;;;;;10.50;1.77;;;;;;;11.02;100.00;98792.94;4974735;28;20479;-85
2022/02/16 01:50:44;;;;;;;31.13;5.68;;;;;;;10.97;100.00;98775.63;4989090;28;20129;-84
2022/02/16 01:53:09;;;;;;;7.13;2.47;;;;;;;10.97;100.00;98807.88;4970054;28;20025;-88
2022/02/16 01:55:35;;;;;;;19.88;5.22;;;;;;;11.08;100.00;98816.25;5009555;28;20041;-87
2022/02/16 01:58:02;;;;;;;11.27;3.47;;;;;;;11.09;100.00;98817.91;4991197;28;20037;-85
2022/02/16 02:00:27;;;;;;;18.00;3.72;;;;;;;11.09;100.00;98826.78;4960462;28;20384;-87
2022/02/16 02:02:53;;;;;;;15.38;3.55;;;;;;;11.00;100.00;98793.97;4960861;28;20037;-86
2022/02/16 02:05:19;;;;;;;12.20;2.67;;;;;;;11.06;100.00;98789.59;4988586;28;20068;-88
2022/02/16 02:07:44;;;;;;;6.95;2.00;;;;;;;11.02;100.00;98807.22;4962778;28;20559;-87
2022/02/16 02:10:10;;;;;;;20.50;2.10;;;;;;;11.08;100.00;98827.00;4995120;28;20026;-87
2022/02/16 02:13:02;;;;;;;1.42;1.08;;;;;;;11.06;100.00;98823.72;4953787;28;20650;-90
2022/02/16 02:15:28;;;;;;;7.65;2.45;;;;;;;11.07;100.00;98828.06;4989448;28;20042;-87
2022/02/16 02:17:54;;;;;;;26.23;5.22;;;;;;;11.08;100.00;98848.50;4986941;28;20052;-89
2022/02/16 02:20:24;;;;;;;11.98;2.92;;;;;;;11.07;100.00;98853.06;4960137;28;20100;-89
2022/02/16 02:22:51;;;;;;;9.38;2.70;;;;;;;11.08;100.00;98832.38;4992511;28;20088;-89
2022/02/16 02:25:18;;;;;;;7.38;2.65;;;;;;;11.15;100.00;98849.25;4971434;28;20030;-86
2022/02/16 02:27:44;;;;;;;9.15;2.10;;;;;;;11.15;100.00;98849.25;4973040;28;20516;-88
2022/02/16 02:30:11;;;;;;;13.30;3.58;;;;;;;11.10;100.00;98831.09;4990232;28;20034;-90
2022/02/16 02:32:44;;;;;;;15.00;4.13;;;;;;;11.17;100.00;98849.88;4980977;28;20072;-87
2022/02/16 02:35:11;;;;;;;12.68;2.40;;;;;;;11.16;100.00;98850.91;4969889;28;20032;-88
2022/02/16 02:37:41;;;;;;;14.77;2.90;;;;;;;11.10;100.00;98833.78;4982621;28;20050;-84
2022/02/16 02:40:08;;;;;;;24.80;3.83;;;;;;;11.05;100.00;98830.16;4992233;28;20045;-88
2022/02/16 02:42:38;;;;;;;25.17;4.78;;;;;;;11.00;100.00;98842.38;4955358;28;20563;-88
2022/02/16 02:45:06;;;;;;;30.05;4.85;;;;;;;10.97;100.00;98833.97;4987615;28;20378;-88
2022/02/16 02:47:32;;;;;;;40.42;5.13;;;;;;;11.08;100.00;98880.78;4953771;28;20491;-89
2022/02/16 02:49:57;;;;;;;30.20;5.03;;;;;;;11.06;100.00;98838.00;4988888;28;20037;-87
2022/02/16 02:52:23;;;;;;;36.33;6.47;;;;;;;11.02;100.00;98846.72;4976356;28;20096;-88
2022/02/16 02:54:48;;;;;;;51.78;7.65;;;;;;;10.98;100.00;98846.34;4988236;28;20479;-88
2022/02/16 02:57:14;;;;;;;38.67;7.03;;;;;;;11.06;100.00;98890.94;4985894;28;20451;-83
2022/02/16 02:59:40;;;;;;;62.08;10.02;;;;;;;11.09;100.00;98901.28;4958439;28;20052;-88
2022/02/16 03:02:05;;;;;;;48.83;7.28;;;;;;;11.03;100.00;98891.41;4956108;28;20113;-88
2022/02/16 03:04:31;;;;;;;33.40;6.80;;;;;;;11.09;100.00;98890.53;5004258;28;20388;-89
2022/02/16 03:06:57;;;;;;;41.72;5.97;;;;;;;11.05;100.00;98895.50;4985388;28;20045;-87
2022/02/16 03:09:22;;;;;;;53.63;10.13;;;;;;;11.08;100.00;98918.44;4988371;28;20065;-89
2022/02/16 03:11:48;;;;;;;43.30;8.80;;;;;;;11.11;100.00;98896.47;4969113;28;20034;-87
2022/02/16 03:14:13;;;;;;;49.20;10.13;;;;;;;11.14;100.00;98907.63;4970577;28;20199;-88
2022/02/16 03:16:42;;;;;;;57.85;8.40;;;;;;;11.14;100.00;98891.47;4986663;28;20037;-87
2022/02/16 03:19:07;;;;;;;54.83;9.25;;;;;;;11.12;100.00;98874.75;4982603;28;20088;-89
2022/02/16 03:21:33;;;;;;;42.88;8.18;;;;;;;11.13;100.00;98875.56;4987796;28;20039;-83
2022/02/16 03:23:59;;;;;;;59.38;10.38;;;;;;;11.04;100.00;98875.06;4969585;28;20037;-88
2022/02/16 03:26:24;;;;;;;57.15;11.07;;;;;;;10.93;100.00;98882.00;4973620;28;20030;-88
2022/02/16 03:28:50;;;;;;;50.25;8.52;;;;;;;11.05;100.00;98906.25;4989647;28;20128;-90
2022/02/16 03:31:15;;;;;;;29.67;6.55;;;;;;;11.02;100.00;98885.19;4988443;28;20033;-88
2022/02/16 03:33:41;;;;;;;59.15;11.32;;;;;;;11.00;100.00;98896.16;4963344;28;20387;-89
2022/02/16 03:36:07;;;;;;;61.30;11.02;;;;;;;11.08;100.00;98880.78;4958411;28;20036;-87
2022/02/16 03:38:33;;;;;;;45.90;8.85;;;;;;;11.05;100.00;98894.69;4992330;28;20042;-90
2022/02/16 03:41:01;;;;;;;62.17;8.73;;;;;;;10.82;100.00;98896.16;4976508;28;20116;-86
2022/02/16 03:43:26;;;;;;;50.92;8.63;;;;;;;10.88;100.00;98891.78;4978589;28;20254;-89
2022/02/16 03:45:52;;;;;;;49.28;11.48;;;;;;;10.93;100.00;98889.25;4960314;28;20026;-86
2022/02/16 03:48:18;;;;;;;37.33;7.35;;;;;;;10.92;100.00;98876.84;5009052;28;20388;-87
2022/02/16 03:50:43;;;;;;;80.30;9.48;;;;;;;10.75;100.00;98858.63;4956083;28;20033;-88
2022/02/16 03:53:09;;;;;;;44.58;8.13;;;;;;;10.67;100.00;98861.59;5006033;28;20100;-89
2022/02/16 03:55:34;;;;;;;46.33;9.02;;;;;;;10.65;100.00;98860.19;4996590;28;20117;-85
2022/02/16 03:58:00;;;;;;;54.22;9.77;;;;;;;10.66;100.00;98865.31;5011937;28;20034;-90
2022/02/16 04:00:25;;;;;;;58.28;8.40;;;;;;;10.76;100.00;98862.13;4994447;28;20033;-88
2022/02/16 04:02:51;;;;;;;50.60;10.00;;;;;;;10.73;100.00;98844.56;4978975;28;20033;-88
2022/02/16 04:05:17;;;;;;;67.03;10.60;;;;;;;10.70;100.00;98858.47;4982240;28;20033;-83
2022/02/16 04:07:42;;;;;;;60.33;8.27;;;;;;;10.62;100.00;98848.00;4966796;28;20403;-88
2022/02/16 04:10:08;;;;;;;49.55;8.90;;;;;;;10.38;100.00;98844.31;4982278;28;20044;-91
2022/02/16 04:12:34;;;;;;;53.33;8.35;;;;;;;10.27;100.00;98874.56;4982683;28;20106;-88
2022/02/16 04:15:00;;;;;;;63.28;9.70;;;;;;;10.22;100.00;98912.00;4962512;28;20044;-89
2022/02/16 04:17:25;;;;;;;49.85;8.50;;;;;;;10.28;100.00;98887.78;4987026;28;20061;-89
2022/02/16 04:19:51;;;;;;;68.95;10.65;;;;;;;10.43;100.00;98911.66;5010357;28;20472;-85
2022/02/16 04:22:17;;;;;;;64.63;9.73;;;;;;;10.50;100.00;98906.19;5011946;28;20605;-89
2022/02/16 04:24:44;;;;;;;43.67;7.90;;;;;;;10.52;100.00;98891.50;4976230;28;20042;-87
2022/02/16 04:27:10;;;;;;;47.50;9.82;;;;;;;10.78;100.00;98906.56;4991489;28;20030;-88
2022/02/16 04:29:35;;;;;;;67.53;9.63;;;;;;;10.78;100.00;98903.03;4992137;28;20099;-90
2022/02/16 04:32:01;;;;;;;56.78;10.82;;;;;;;10.77;100.00;98920.22;4992026;28;20109;-90
2022/02/16 04:34:27;;;;;;;53.58;8.60;;;;;;;10.70;100.00;98924.84;4990851;28;20064;-88
2022/02/16 04:36:53;;;;;;;41.55;8.50;;;;;;;10.52;100.00;98890.69;4991132;28;20444;-90
2022/02/16 04:39:18;;;;;;;72.85;10.77;;;;;;;10.56;100.00;98913.41;4983283;28;20384;-86
2022/02/16 04:41:44;;;;;;;48.95;7.15;;;;;;;10.67;100.00;98944.09;4991735;28;20126;-89
2022/02/16 04:44:10;;;;;;;56.13;7.65;;;;;;;10.55;100.00;98923.31;4975674;28;20037;-87
2022/02/16 04:46:35;;;;;;;51.42;8.15;;;;;;;10.69;100.00;98944.69;4974627;28;20040;-90
2022/02/16 04:49:01;;;;;;;65.53;10.15;;;;;;;10.68;100.00;98940.38;4990835;28;20100;-86
2022/02/16 04:51:26;;;;;;;45.20;8.13;;;;;;;10.69;100.00;98925.88;4981940;28;20092;-86
2022/02/16 04:53:52;;;;;;;79.80;12.38;;;;;;;10.76;100.00;98907.81;4992956;28;20357;-89
2022/02/16 04:56:18;;;;;;;73.05;11.20;;;;;;;10.74;100.00;98915.28;5007789;28;20042;-89
2022/02/16 04:58:44;;;;;;;43.75;8.45;;;;;;;10.74;100.00;98931.41;5006964;28;20030;-86
2022/02/16 05:01:10;;;;;;;56.13;11.57;;;;;;;10.72;100.00;98920.88;4990363;28;20491;-91
2022/02/16 05:03:36;;;;;;;43.75;7.10;;;;;;;10.66;100.00;98902.94;4974662;28;20539;-85
2022/02/16 05:06:02;;;;;;;55.75;10.05;;;;;;;10.85;100.00;98898.44;4989924;28;20026;-89
2022/02/16 05:08:27;;;;;;;57.55;9.70;;;;;;;10.81;100.00;98899.91;4970512;28;20065;-88
2022/02/16 05:10:53;;;;;;;46.97;8.57;;;;;;;10.78;100.00;98929.94;4988050;28;20103;-89
2022/02/16 05:13:19;;;;;;;48.88;8.73;;;;;;;10.86;100.00;98916.19;4992071;28;20041;-89
2022/02/16 05:15:44;;;;;;;52.22;9.02;;;;;;;10.63;100.00;98873.00;4975806;28;20042;-89
2022/02/16 05:18:10;;;;;;;43.55;7.57;;;;;;;10.73;100.00;98900.19;4989469;28;20061;-89
2022/02/16 05:20:36;;;;;;;71.88;11.18;;;;;;;10.76;100.00;98923.94;4973837;28;20108;-88
2022/02/16 05:23:03;;;;;;;45.60;8.45;;;;;;;10.75;100.00;98898.13;4985786;28;20037;-84
2022/02/16 05:25:29;;;;;;;49.95;8.43;;;;;;;10.67;100.00;98901.91;4982923;28;20038;-86
2022/02/16 05:27:57;;;;;;;47.55;6.97;;;;;;;10.74;100.00;98915.28;5006196;28;20037;-89
2022/02/16 05:30:23;;;;;;;62.50;10.38;;;;;;;10.72;100.00;98912.00;4976461;28;20037;-90
2022/02/16 05:32:48;;;;;;;59.03;8.68;;;;;;;10.46;100.00;98876.28;4992254;28;20033;-85
2022/02/16 05:35:14;;;;;;;51.00;8.70;;;;;;;10.72;100.00;98936.19;5007088;28;20035;-90
2022/02/16 05:37:43;;;;;;;60.10;9.73;;;;;;;10.78;100.00;98911.94;4960742;28;20046;-88
2022/02/16 05:40:09;;;;;;;50.75;11.23;;;;;;;10.82;100.00;98916.84;4988035;28;20041;-90
2022/02/16 05:42:35;;;;;;;60.70;9.65;;;;;;;10.79;100.00;98891.25;4958077;28;20053;-85
2022/02/16 05:45:01;;;;;;;50.33;8.63;;;;;;;10.78;100.00;98882.34;4992314;28;20037;-84
2022/02/16 05:47:26;;;;;;;76.47;11.30;;;;;;;10.74;100.00;98872.25;4958444;28;20056;-87
2022/02/16 05:49:52;;;;;;;42.30;8.25;;;;;;;10.57;100.00;98863.97;5006040;28;20219;-88
2022/02/16 05:52:18;;;;;;;41.45;8.13;;;;;;;10.57;100.00;98877.41;5010830;28;20061;-90
2022/02/16 05:54:43;;;;;;;64.75;12.85;;;;;;;10.64;100.00;98874.63;4970737;28;20472;-85
2022/02/16 05:57:11;;;;;;;44.40;7.43;;;;;;;10.58;100.00;98868.28;4975469;28;20057;-89
2022/02/16 05:59:39;;;;;;;68.90;9.20;;;;;;;10.48;100.00;98857.25;4993803;28;20038;-88
2022/02/16 06:02:06;;;;;;;54.33;8.80;;;;;;;10.50;100.00;98853.28;4977361;28;20476;-89
2022/02/16 06:04:34;;;;;;;50.10;7.68;;;;;;;10.57;100.00;98861.28;4970374;28;20034;-90
2022/02/16 06:07:00;;;;;;;43.55;8.13;;;;;;;10.56;100.00;98865.03;5002692;28;20037;-89
2022/02/16 06:09:27;;;;;;;39.53;8.80;;;;;;;10.48;100.00;98858.06;4998692;28;20045;-89
2022/02/16 06:11:53;;;;;;;57.58;10.52;;;;;;;10.62;100.00;98874.88;4982534;28;20049;-88
2022/02/16 06:14:18;;;;;;;61.42;9.77;;;;;;;10.65;100.00;98877.13;4970391;28;20469;-89
2022/02/16 06:16:44;;;;;;;45.95;7.60;;;;;;;10.73;100.00;98873.31;5000121;28;20235;-86
2022/02/16 06:19:09;;;;;;;50.70;9.52;;;;;;;10.67;100.00;98864.28;4980983;28;20037;-91
2022/02/16 06:21:35;;;;;;;49.25;10.65;;;;;;;10.75;100.00;98877.44;5016602;28;20030;-90
2022/02/16 06:24:01;;;;;;;59.95;9.82;;;;;;;10.79;100.00;98880.47;4999235;28;20404;-88
2022/02/16 06:26:27;;;;;;;52.10;7.68;;;;;;;10.93;100.00;98870.44;4960449;28;20038;-88
2022/02/16 06:28:52;;;;;;;48.67;7.13;;;;;;;10.86;100.00;98845.47;4961503;28;20083;-87
2022/02/16 06:31:18;;;;;;;58.53;11.52;;;;;;;10.78;100.00;98841.22;4990699;28;20037;-90
2022/02/16 06:33:44;;;;;;;52.92;10.98;;;;;;;10.83;100.00;98838.69;5006498;28;20511;-88
2022/02/16 06:36:09;;;;;;;52.00;10.90;;;;;;;10.77;100.00;98810.00;4974966;28;20128;-90
2022/02/16 06:38:35;;;;;;;41.53;8.07;;;;;;;10.72;100.00;98826.00;4976322;28;20034;-88
2022/02/16 06:41:00;;;;;;;48.22;8.80;;;;;;;10.62;100.00;98823.81;5007221;28;20036;-90
2022/02/16 06:43:26;;;;;;;44.40;8.20;;;;;;;10.45;100.00;98802.09;5008780;28;20427;-91
2022/02/16 06:45:55;;;;;;;37.13;7.95;;;;;;;10.68;100.00;98812.16;4987236;28;20088;-89
2022/02/16 06:48:21;;;;;;;30.00;5.85;;;;;;;10.56;100.00;98814.78;5007611;28;20030;-90
2022/02/16 06:50:47;;;;;;;43.53;7.95;;;;;;;10.61;100.00;98813.28;4978652;28;20495;-91
2022/02/16 06:53:12;;;;;;;49.30;9.63;;;;;;;10.41;100.00;98759.78;4975369;28;20066;-89
2022/02/16 06:55:38;;;;;;;46.65;7.90;;;;;;;10.46;100.00;98766.09;5006255;28;20030;-89
2022/02/16 06:58:04;;;;;;;54.72;10.82;;;;;;;10.55;100.00;98780.88;5006142;28;20030;-87
2022/02/16 07:00:32;;;;;;;50.35;9.73;;;;;;;10.68;100.00;98805.97;4987486;28;20124;-88
2022/02/16 07:02:57;;;;;;;50.60;10.10;;;;;;;10.68;100.00;98785.28;4986947;28;20654;-89
2022/02/16 07:05:23;;;;;;;31.10;6.47;;;;;;;10.65;100.00;98790.28;5007484;28;20034;-89
2022/02/16 07:07:49;;;;;;;38.50;7.78;;;;;;;10.48;100.00;98793.59;4965490;28;20034;-88
2022/02/16 07:10:14;;;;;;;31.85;7.72;;;;;;;10.61;100.00;98781.03;4990349;28;20045;-85
2022/02/16 07:12:40;;;;;;;35.97;6.22;;;;;;;10.52;100.00;98772.44;4978303;28;20447;-86
2022/02/16 07:15:13;;;;;;;30.02;5.18;;;;;;;10.42;100.00;98750.66;4987161;28;20550;-90
2022/02/16 07:17:40;;;;;;;36.25;6.97;;;;;;;10.53;100.00;98761.50;4981185;28;20030;-87
2022/02/16 07:20:13;;;;;;;29.20;4.95;;;;;;;10.48;100.00;98755.97;4970328;28;20045;-87
2022/02/16 07:22:45;;;;;;;27.83;5.35;;;;;;;10.43;100.00;98734.31;4984096;28;22206;-87
2022/02/16 07:25:12;;;;;;;33.75;5.05;;;;;;;10.41;100.00;98739.09;4987516;28;20038;-89
2022/02/16 07:27:40;;;;;;;28.70;6.13;;;;;;;10.28;100.00;98713.19;4966745;28;20557;-87
2022/02/16 07:30:08;;;;;;;22.13;4.38;;;;;;;10.30;100.00;98719.16;4970939;28;20120;-89
2022/02/16 07:32:37;;;;;;;21.42;4.13;;;;;;;10.32;100.00;98719.78;5006206;28;20120;-89
2022/02/16 07:35:03;;;;;;;26.77;4.43;;;;;;;10.32;100.00;98710.91;4987408;28;20372;-85
2022/02/16 07:37:29;;;;;;;26.13;4.85;;;;;;;10.35;100.00;98713.13;4987073;28;20079;-87
2022/02/16 07:39:57;;;;;;;28.60;5.78;;;;;;;10.45;100.00;98721.50;4957835;28;20093;-90
2022/02/16 07:42:23;;;;;;;17.42;3.65;;;;;;;10.52;100.00;98708.78;4980150;28;20028;-88
2022/02/16 07:44:51;;;;;;;5.60;2.92;;;;;;;10.52;100.00;98705.28;4961175;28;20045;-87
2022/02/16 07:47:16;;;;;;;5.72;1.63;;;;;;;10.49;100.00;98690.41;4963556;28;20041;-87
2022/02/16 07:49:42;;;;;;;3.65;1.50;;;;;;;10.47;100.00;98695.19;4976608;28;20038;-88
2022/02/16 07:52:08;;;;;;;3.85;1.52;;;;;;;10.40;100.00;98682.88;4977380;28;20088;-84
2022/02/16 07:54:33;;;;;;;1.25;0.88;;;;;;;10.34;100.00;98685.44;4973643;28;20038;-87
2022/02/16 07:56:59;;;;;;;3.17;0.93;;;;;;;10.23;100.00;98674.59;4976189;28;20034;-87
2022/02/16 07:59:25;;;;;;;2.42;0.75;;;;;;;10.30;100.00;98694.19;5009351;28;20045;-86
2022/02/16 08:01:50;;;;;;;3.85;1.58;;;;;;;10.28;100.00;98699.75;4964446;28;20040;-86
2022/02/16 08:04:19;;;;;;;11.13;1.50;;;;;;;10.28;100.00;98669.41;5006053;28;20488;-86
2022/02/16 08:06:46;;;;;;;4.07;1.00;;;;;;;10.31;100.00;98664.38;4995971;28;20473;-88
2022/02/16 08:09:14;;;;;;;4.45;1.38;;;;;;;10.34;100.00;98668.50;5001068;28;20033;-88
2022/02/16 08:11:40;;;;;;;5.32;1.55;;;;;;;10.38;100.00;98661.63;4977547;28;20036;-87
2022/02/16 08:14:09;;;;;;;3.53;1.13;;;;;;;10.43;100.00;98661.78;4976082;28;20041;-86
2022/02/16 08:16:36;;;;;;;2.67;1.00;;;;;;;10.47;100.00;98654.88;4995255;28;20057;-87
2022/02/16 08:19:03;;;;;;;4.80;1.10;;;;;;;10.53;100.00;98635.19;4979563;28;20030;-86
2022/02/16 08:21:29;;;;;;;1.40;0.80;;;;;;;10.63;100.00;98647.25;4992256;28;20022;-82
2022/02/16 08:23:55;;;;;;;1.85;0.80;;;;;;;10.66;100.00;98636.84;4981540;28;20057;-88
2022/02/16 08:26:20;;;;;;;1.20;0.70;;;;;;;10.72;100.00;98664.72;4958924;28;20713;-87
2022/02/16 08:28:46;;;;;;;2.42;0.75;;;;;;;10.77;100.00;98684.47;4992707;28;20046;-87
2022/02/16 08:31:12;;;;;;;2.70;0.90;;;;;;;10.86;100.00;98638.47;4960284;28;20044;-85
2022/02/16 08:33:38;;;;;;;2.25;0.80;;;;;;;10.94;100.00;98665.81;4965334;28;20083;-86
2022/02/16 08:36:04;;;;;;;1.85;0.68;;;;;;;10.84;100.00;98637.84;4975509;28;20041;-85
2022/02/16 08:38:30;;;;;;;0.57;0.57;;;;;;;11.06;100.00;98665.03;4972043;28;20038;-88
2022/02/16 08:40:56;;;;;;;4.75;1.58;;;;;;;11.04;100.00;98665.28;4992316;28;20037;-85
2022/02/16 08:43:21;;;;;;;0.50;0.50;;;;;;;11.14;100.00;98675.44;4975972;28;20049;-85
2022/02/16 08:45:47;;;;;;;0.95;0.60;;;;;;;11.17;100.00;98689.28;4976417;28;20696;-85
2022/02/16 08:48:13;;;;;;;0.40;0.40;;;;;;;11.23;100.00;98685.66;4993465;28;20045;-87
2022/02/16 08:50:39;;;;;;;1.45;0.68;;;;;;;11.27;100.00;98677.94;4977245;28;20480;-82
2022/02/16 08:53:04;;;;;;;0.85;0.60;;;;;;;11.33;100.00;98693.19;4976269;28;20476;-87
2022/02/16 08:55:30;;;;;;;1.08;0.65;;;;;;;11.40;100.00;98675.03;4992084;28;20037;-85
2022/02/16 08:57:56;;;;;;;2.83;0.88;;;;;;;11.52;100.00;98685.00;4993578;28;20744;-86
2022/02/16 09:00:22;;;;;;;2.92;0.70;;;;;;;11.56;100.00;98691.56;4997516;28;20038;-87
2022/02/16 09:02:48;;;;;;;0.98;0.70;;;;;;;11.59;100.00;98688.38;5004248;28;20040;-89
2022/02/16 09:05:14;;;;;;;3.83;0.90;;;;;;;11.60;100.00;98668.50;4977640;28;20539;-87
2022/02/16 09:07:40;;;;;;;0.55;0.55;;;;;;;11.63;100.00;98662.66;4995139;28;20136;-89
2022/02/16 09:10:10;;;;;;;1.27;0.50;;;;;;;11.65;100.00;98672.16;4969121;28;20069;-86
2022/02/16 09:12:37;;;;;;;4.25;1.20;;;;;;;11.68;100.00;98668.16;4966790;28;20034;-86
2022/02/16 09:15:04;;;;;;;3.67;1.13;;;;;;;11.61;100.00;98672.84;4958901;28;20049;-85
2022/02/16 09:17:29;;;;;;;1.55;0.85;;;;;;;11.68;100.00;98673.53;4961688;28;20400;-85
2022/02/16 09:19:58;;;;;;;3.60;1.23;;;;;;;11.69;100.00;98653.63;4984538;28;20056;-85
2022/02/16 09:22:24;;;;;;;2.83;1.23;;;;;;;11.69;100.00;98650.13;4999274;28;20049;-85
2022/02/16 09:24:51;;;;;;;4.32;0.98;;;;;;;11.76;100.00;98664.31;4992522;28;20037;-87
2022/02/16 09:27:19;;;;;;;2.72;1.05;;;;;;;11.81;100.00;98651.78;4996798;28;20034;-87
2022/02/16 09:29:46;;;;;;;6.20;1.48;;;;;;;11.82;100.00;98664.16;4989837;28;20030;-87
2022/02/16 09:32:12;;;;;;;4.95;1.30;;;;;;;11.83;100.00;98667.72;4964245;28;20441;-83
2022/02/16 09:34:38;;;;;;;5.55;1.40;;;;;;;11.80;100.00;98669.00;4993613;28;20037;-88
2022/02/16 09:37:06;;;;;;;5.63;1.42;;;;;;;11.77;100.00;98650.59;4979790;28;20030;-83
2022/02/16 09:39:32;;;;;;;4.30;1.13;;;;;;;11.84;100.00;98610.09;4981976;28;20072;-88
2022/02/16 09:41:58;;;;;;;4.65;1.10;;;;;;;11.86;100.00;98638.44;4984617;28;20030;-87
2022/02/16 09:44:30;;;;;;;2.53;0.82;;;;;;;11.76;100.00;98583.53;4973463;28;20598;-86
2022/02/16 09:46:55;;;;;;;2.45;1.30;;;;;;;11.94;100.00;98621.13;4966443;28;20065;-88
2022/02/16 09:49:22;;;;;;;7.32;1.90;;;;;;;11.89;100.00;98623.69;4998572;28;20122;-88
2022/02/16 09:51:48;;;;;;;0.95;0.70;;;;;;;11.91;100.00;98618.91;4975271;28;20026;-86
2022/02/16 09:54:13;;;;;;;3.45;1.05;;;;;;;11.90;100.00;98641.47;4983921;28;20609;-88
2022/02/16 09:56:43;;;;;;;3.33;1.25;;;;;;;11.90;100.00;98651.44;4986416;28;20049;-86
2022/02/16 09:59:10;;;;;;;3.60;1.20;;;;;;;11.85;100.00;98631.41;4962305;28;20575;-85
2022/02/16 10:01:58;;;;;;;3.97;0.90;;;;;;;11.92;100.00;98625.09;4997855;28;20473;-85
2022/02/16 10:04:25;;;;;;;2.15;0.70;;;;;;;11.77;100.00;98604.81;4986052;28;20030;-87
2022/02/16 10:06:59;;;;;;;2.03;1.00;;;;;;;11.88;100.00;98616.66;4986836;28;20115;-85
2022/02/16 10:09:32;;;;;;;1.98;1.15;;;;;;;11.80;100.00;98573.91;4980661;28;20048;-84
2022/02/16 10:12:00;;;;;;;4.30;1.20;;;;;;;11.93;100.00;98621.34;4974549;28;20030;-87
2022/02/16 10:14:30;;;;;;;6.60;1.35;;;;;;;11.84;100.00;98586.66;4960700;28;20392;-85
2022/02/16 10:16:57;;;;;;;0.73;0.60;;;;;;;11.94;100.00;98596.88;4973392;28;20380;-89
2022/02/16 10:19:25;;;;;;;2.30;0.70;;;;;;;11.84;100.00;98586.66;4958318;28;20116;-87
2022/02/16 10:22:05;;;;;;;1.38;1.08;;;;;;;11.88;100.00;98587.88;4983561;28;20041;-86
2022/02/16 10:24:32;;;;;;;3.83;1.05;;;;;;;11.90;100.00;98562.56;4988548;28;20574;-85
2022/02/16 10:26:58;;;;;;;1.33;0.70;;;;;;;11.95;100.00;98559.97;4990291;28;20042;-88
2022/02/16 10:29:35;;;;;;;4.00;1.25;;;;;;;11.92;100.00;98563.97;4975246;28;20404;-89
2022/02/16 10:32:01;;;;;;;1.80;0.57;;;;;;;11.97;100.00;98577.53;4975253;28;20034;-86
2022/02/16 10:34:47;;;;;;;5.20;1.33;;;;;;;12.04;100.00;98574.69;4960793;28;20037;-91
2022/02/16 10:37:14;;;;;;;2.97;1.33;;;;;;;12.04;100.00;98585.47;4989405;28;20087;-88
2022/02/16 10:39:40;;;;;;;2.47;0.90;;;;;;;11.98;100.00;98589.94;4983678;28;20080;-87
2022/02/16 10:42:13;;;;;;;4.22;2.00;;;;;;;11.97;100.00;98569.47;4961929;28;20062;-91
2022/02/16 10:44:40;;;;;;;2.03;0.93;;;;;;;12.07;100.00;98596.63;4998148;28;20107;-88
2022/02/16 10:47:10;;;;;;;2.58;0.85;;;;;;;12.02;100.00;98584.91;4969599;28;20088;-89
2022/02/16 10:49:58;;;;;;;3.47;1.42;;;;;;;12.02;100.00;98582.22;4986838;28;20072;-88
2022/02/16 10:52:24;;;;;;;7.78;1.38;;;;;;;11.99;100.00;98555.78;4992369;28;20040;-87
2022/02/16 10:54:56;;;;;;;3.08;1.25;;;;;;;11.99;100.00;98577.31;5002706;28;20038;-86
2022/02/16 10:57:24;;;;;;;7.10;1.52;;;;;;;11.97;100.00;98579.44;4982361;28;20030;-86
2022/02/16 10:59:57;;;;;;;3.00;0.93;;;;;;;12.00;100.00;98565.47;4976999;28;20055;-84
2022/02/16 11:02:25;;;;;;;4.53;1.10;;;;;;;12.11;100.00;98570.00;4964345;28;20033;-89
2022/02/16 11:04:53;;;;;;;3.72;1.23;;;;;;;12.09;100.00;98572.94;4975450;28;20482;-87
2022/02/16 11:07:19;;;;;;;7.80;1.48;;;;;;;11.98;100.00;98551.44;4965594;28;20056;-88
2022/02/16 11:09:48;;;;;;;6.20;1.80;;;;;;;12.12;100.00;98555.50;4972212;28;20512;-88
2022/02/16 11:12:16;;;;;;;3.38;1.10;;;;;;;12.09;100.00;98572.13;4956241;28;20034;-86
2022/02/16 11:14:42;;;;;;;16.25;3.05;;;;;;;12.07;100.00;98593.09;4990395;28;20034;-89
2022/02/16 11:17:12;;;;;;;3.15;1.13;;;;;;;12.05;100.00;98597.91;5008611;28;20395;-85